Tyler, TX (75703)

7:14 AM CDT en Octubre 01, 2014 (GMT -0500)
KTXTYLER21 | Change Station
CLOSE
Current Station
Estación meteorológica personal
Location: Tyler, TX
Altura: 499 ft
Estaciones meteorológicas cercanas

Alt 499 ft 32.29 °N, 95.31 °W | Updated 22 seconds ago

Nublado
Nublado
74.3 ° F
Sensación térmica 75 ° F
N
-
Viento Variable Viento desde Norte

Hoy
Alta -- | Baja -- ° F
--% Posibilidad de precipitaciones
Ayer
Alta -- | Baja -- ° F
Precip. -- pul
7:15 AM 7:05 PM
Creciente, 47% visible
Presión 29.83 pul
Visibilidad 8.0 Millas
Nubes Nublado 300 ft
Índice de calor 75 ° F
Punto de rocío 66 ° F
Humedad 76%
Precipitaciones -999.00 pul
Espesor de la nieve No disponible.
UV 0 de una escala de 12
Polen 7.60 de una escala de 12
Ozono Buena
PM2.5 Buena
Flu Activity No disponible.
SPECI KTYR 011201Z 18008KT 8SM OVC003 24/22 A2983 RMK AO2

More Conditions Fewer Conditions

Presión 29.83 pul
Visibilidad 8.0 Millas
Nubes Nublado 300 ft
Índice de calor 75 ° F
Punto de rocío 66 ° F
Humedad 76%
Precipitaciones -999.00 pul
Espesor de la nieve No disponible.
UV 0 de una escala de 12
Polen 7.60 de una escala de 12
Ozono Buena
PM2.5 Buena
Flu Activity No disponible.
SPECI KTYR 011201Z 18008KT 8SM OVC003 24/22 A2983 RMK AO2

More Conditions Fewer Conditions

Nowcast | as of 6:56 am CDT on October 1, 2014

Scattered showers are moving to the north around 20 mph across parts of deep East Texas...East Texas...central Louisiana..north central Louisiana. Rainfall amounts will range from atrace to near two tenths of an inch.

×

10-Day Weather Forecast

Almanac

Astronomía

Oct. 01, 2014 Salida Puesta
Hora real 7:15 AM CDT 7:05 PM CDT
Crepúsculo civil 6:50 AM CDT 7:30 PM CDT
Crepúsculo náutico 6:22 AM CDT 7:58 PM CDT
Crepúsculo astronómico 5:53 AM CDT 8:27 PM CDT
Luna 2:02 PM CDT Sin puesta de luna
Horas de luz 12h 39m
Horas de luz
11h 50m
Tomorrow will be 1m 57s shorter.
Creciente, 47% of the Moon is Illuminated
Hoy
Creciente
Oct 1
Cuarto creciente
Oct 8
Luna llena
Oct 15
Cuarto menguante
Oct 23
Nueva

Extremos de hoy

Máximos del estado Bajos del estado

Community

WunderPhotos

Upload Photos

1,757,914 ¡fotos cargadas!

WunderBlogs® & News

Nearby

Calidad del aire

  Calidad del aire Índice AQ Contaminante
Ayer Buena
PM2.5
Ayer Buena
OZONE
Real Buena
PM2.5
Real Buena
OZONE
Miércoles Buena
OZONE
Miércoles Buena
PM10
Jueves Buena
OZONE
Jueves Buena
PM10
Viernes Buena
OZONE
Viernes Buena
PM10

Grosos de nieve

Estación Profundido Altura
No tenemos constancia de nieve nueva.

Actividad de terremotos

Ciudad Distance Mag. Tiempo y dato
No hay informes recientes de la actividad sísmica.
Magnitud mínima muestra es 2,5.

Temperaturas de aguas costeras

Lugar Temperatura
Sin partes meteorológicos de las estaciones

Estaciones meteorológicas cercanas